Hebei Shijiazhuang — VRIS2 — position and weather

sailwx.info

Track history (hours):
 
Tides and Currents Weather Stations Pressure Air Temp Water Temp Dewpoint Dewpoint Depression Visibility Wind Speed Wind Dir Waves Ship Positions

Hebei Shijiazhuang

Last reported at 2015-Jul-23 13:32 UTC. Time now 2015-Jul-28 19:47 UTC.
Position N 31°05' E 122°34'.

Length 235 m.

Type: Cargo ship. MMSI: 477899000.

Date/timePositionNaut miles runAvg speedWind from/ knotsBaromVisibWave heightAir tempDewpointWater temp
2015-Jul-23 13:32N 31°05' E 122°34'1212.5
2015-Jul-23 12:33N 31°06' E 122°20'1515.0
2015-Jul-23 11:33N 31°14' E 122°05'1414.3
2015-Jul-23 10:34N 31°17' E 121°49'1211.6
2015-Jul-23 09:33N 31°22' E 121°37'8 7.9
2015-Jul-23 08:34N 31°27' E 121°29'1212.1
2015-Jul-23 07:33N 31°35' E 121°18'1414.4
2015-Jul-23 06:33N 31°44' E 121°06'1212.1
2015-Jul-23 05:33N 31°48' E 120°52'3 2.0
2015-Jul-23 04:18N 31°50' E 120°50'0 0.0
2015-Jul-23 03:18N 31°50' E 120°50'0 0.0
2015-Jul-23 02:30N 31°50' E 120°50'0 0.0
2015-Jul-23 01:30N 31°50' E 120°50'0 0.0
2015-Jul-22 20:27N 31°50' E 120°50'0 0.0
2015-Jul-22 19:33N 31°50' E 120°50'0 0.0
2015-Jul-22 18:30N 31°50' E 120°50'0 0.0
2015-Jul-22 16:21N 31°50' E 120°50'0 0.0
2015-Jul-22 14:30N 31°50' E 120°50'0 0.0
2015-Jul-22 12:30N 31°50' E 120°50'0 0.0
2015-Jul-22 11:33N 31°50' E 120°50'0 0.0
2015-Jul-22 10:30N 31°50' E 120°50'0 0.0
2015-Jul-22 01:33N 31°50' E 120°50'0 0.0
2015-Jul-22 00:24N 31°50' E 120°50'0 0.0
2015-Jul-21 23:33N 31°50' E 120°50'0 0.0
2015-Jul-21 22:30N 31°50' E 120°50'0 0.0
2015-Jul-21 21:33N 31°50' E 120°50'0 0.0
2015-Jul-21 20:33N 31°50' E 120°50'0 0.0
2015-Jul-21 19:33N 31°50' E 120°50'0 0.0
2015-Jul-21 18:33N 31°50' E 120°50'0 0.0
2015-Jul-21 17:33N 31°50' E 120°50'0 0.0
2015-Jul-21 16:33N 31°50' E 120°50'0 0.0
2015-Jul-21 15:30N 31°50' E 120°50'0 0.0
2015-Jul-21 14:33N 31°50' E 120°50'0 0.0
2015-Jul-21 12:21N 31°50' E 120°50'0 0.0
2015-Jul-21 11:30N 31°50' E 120°50'0 0.0
2015-Jul-21 10:30N 31°50' E 120°50'0 0.0
2015-Jul-21 07:06N 31°50' E 120°50'0 0.0
2015-Jul-21 02:33N 31°50' E 120°50'0 0.0
2015-Jul-21 01:24N 31°50' E 120°50'0 0.0
2015-Jul-21 00:33N 31°50' E 120°50'0 0.0
2015-Jul-20 23:27N 31°50' E 120°50'0 0.0
2015-Jul-20 22:33N 31°50' E 120°50'0 0.0
2015-Jul-20 21:30N 31°50' E 120°50'0 0.0
2015-Jul-20 20:33N 31°50' E 120°50'0 0.0
2015-Jul-20 19:33N 31°50' E 120°50'0 0.0
2015-Jul-20 18:21N 31°50' E 120°50'0 0.0
2015-Jul-20 17:27N 31°50' E 120°50'0 0.0
2015-Jul-20 16:33N 31°50' E 120°50'0 0.0
2015-Jul-20 15:27N 31°50' E 120°50'0 0.0
2015-Jul-20 14:30N 31°50' E 120°50'0 0.0
2015-Jul-20 10:33N 31°50' E 120°50'0 0.0
2015-Jul-20 09:27N 31°50' E 120°50'0 0.0
2015-Jul-20 08:33N 31°50' E 120°50'0 0.0
2015-Jul-20 07:06N 31°50' E 120°50'0 0.0
2015-Jul-20 04:09N 31°50' E 120°50'0 0.0
2015-Jul-20 03:33N 31°50' E 120°50'0 0.0
2015-Jul-20 02:33N 31°50' E 120°50'0 0.0
2015-Jul-20 01:33N 31°50' E 120°50'0 0.0
2015-Jul-20 00:33N 31°50' E 120°50'0 0.0
2015-Jul-19 23:33N 31°50' E 120°50'0 0.0
2015-Jul-19 22:33N 31°50' E 120°50'0 0.0
2015-Jul-19 21:33N 31°50' E 120°50'0 0.0
2015-Jul-19 20:24N 31°50' E 120°50'0 0.0
2015-Jul-19 19:24N 31°50' E 120°50'0 0.0
2015-Jul-19 17:27N 31°50' E 120°50'0 0.0
2015-Jul-19 16:30N 31°50' E 120°50'0 0.0
2015-Jul-19 15:30N 31°50' E 120°50'0 0.0
2015-Jul-19 14:33N 31°50' E 120°50'0 0.0
2015-Jul-19 13:24N 31°50' E 120°50'0 0.0
2015-Jul-19 12:18N 31°50' E 120°50'0 0.4
2015-Jul-19 11:33N 31°50' E 120°51'6 5.9
2015-Jul-19 10:31N 31°47' E 120°57'9 9.0
2015-Jul-19 09:33N 31°44' E 121°06'1111.2
2015-Jul-19 08:33N 31°37' E 121°16'1212.0
2015-Jul-19 07:33N 31°29' E 121°27'9 9.0
2015-Jul-19 06:33N 31°23' E 121°35'10 9.8
2015-Jul-19 05:33N 31°19' E 121°45'10 9.7
2015-Jul-19 04:33N 31°16' E 121°56'38 9.3
2015-Jul-19 00:32N 31°07' E 122°38'3 2.6
2015-Jul-18 23:33N 31°07' E 122°41'23 7.0
2015-Jul-18 20:18N 30°59' E 123°07'20 6.9
2015-Jul-18 17:21N 30°43' E 123°20'75 9.5
2015-Jul-18 09:28N 29°40' E 122°33'1111.4
2015-Jul-18 08:30N 29°43' E 122°21'1111.7
2015-Jul-18 07:33N 29°51' E 122°12'6 1.1
2015-Jul-18 02:13N 29°54' E 122°06'0 0.0
2015-Jul-18 01:25N 29°54' E 122°06'0 0.0
2015-Jul-17 18:31N 29°54' E 122°06'0 0.0
2015-Jul-17 16:16N 29°54' E 122°06'0 0.0
2015-Jul-17 15:07N 29°54' E 122°06'0 0.0
2015-Jul-17 14:31N 29°54' E 122°06'0 0.0
2015-Jul-17 12:25N 29°54' E 122°06'0 0.0
2015-Jul-17 10:13N 29°54' E 122°06'0 0.0
2015-Jul-17 08:13N 29°54' E 122°06'0 0.0
2015-Jul-17 06:31N 29°54' E 122°06'0 0.0
2015-Jul-17 03:30N 29°54' E 122°06'3 3.3
2015-Jul-17 02:33N 29°55' E 122°10'1211.6
2015-Jul-17 01:33N 29°46' E 122°18'8 8.3
2015-Jul-17 00:33N 29°39' E 122°23'2 0.3
2015-Jul-16 17:28N 29°38' E 122°25'0 0.1
2015-Jul-16 14:28N 29°38' E 122°25'0 0.0
2015-Jul-15 11:05N 29°38' E 122°25'1 1.9
2015-Jul-15 10:33N 29°37' E 122°24'4 4.1
2015-Jul-15 09:33N 29°34' E 122°27'5 5.1
2015-Jul-15 08:33N 29°31' E 122°31'  
Track history (hours):
 
Tides and Currents Weather Stations Pressure Air Temp Water Temp Dewpoint Dewpoint Depression Visibility Wind Speed Wind Dir Waves Ship Positions

Hebei Shijiazhuang

Last reported at 2015-Jul-23 13:32 UTC. Time now 2015-Jul-28 19:47 UTC.
Position N 31°05' E 122°34'.

Length 235 m.

Type: Cargo ship. MMSI: 477899000.

Date/timePositionNaut miles runAvg speedWind from/ knotsBaromVisibWave heightAir tempDewpointWater temp
2015-Jul-23 13:32N 31°05' E 122°34'1212.5
2015-Jul-23 12:33N 31°06' E 122°20'1515.0
2015-Jul-23 11:33N 31°14' E 122°05'1414.3
2015-Jul-23 10:34N 31°17' E 121°49'1211.6
2015-Jul-23 09:33N 31°22' E 121°37'8 7.9
2015-Jul-23 08:34N 31°27' E 121°29'1212.1
2015-Jul-23 07:33N 31°35' E 121°18'1414.4
2015-Jul-23 06:33N 31°44' E 121°06'1212.1
2015-Jul-23 05:33N 31°48' E 120°52'3 2.0
2015-Jul-23 04:18N 31°50' E 120°50'0 0.0
2015-Jul-23 03:18N 31°50' E 120°50'0 0.0
2015-Jul-23 02:30N 31°50' E 120°50'0 0.0
2015-Jul-23 01:30N 31°50' E 120°50'0 0.0
2015-Jul-22 20:27N 31°50' E 120°50'0 0.0
2015-Jul-22 19:33N 31°50' E 120°50'0 0.0
2015-Jul-22 18:30N 31°50' E 120°50'0 0.0
2015-Jul-22 16:21N 31°50' E 120°50'0 0.0
2015-Jul-22 14:30N 31°50' E 120°50'0 0.0
2015-Jul-22 12:30N 31°50' E 120°50'0 0.0
2015-Jul-22 11:33N 31°50' E 120°50'0 0.0
2015-Jul-22 10:30N 31°50' E 120°50'0 0.0
2015-Jul-22 01:33N 31°50' E 120°50'0 0.0
2015-Jul-22 00:24N 31°50' E 120°50'0 0.0
2015-Jul-21 23:33N 31°50' E 120°50'0 0.0
2015-Jul-21 22:30N 31°50' E 120°50'0 0.0
2015-Jul-21 21:33N 31°50' E 120°50'0 0.0
2015-Jul-21 20:33N 31°50' E 120°50'0 0.0
2015-Jul-21 19:33N 31°50' E 120°50'0 0.0
2015-Jul-21 18:33N 31°50' E 120°50'0 0.0
2015-Jul-21 17:33N 31°50' E 120°50'0 0.0
2015-Jul-21 16:33N 31°50' E 120°50'0 0.0
2015-Jul-21 15:30N 31°50' E 120°50'0 0.0
2015-Jul-21 14:33N 31°50' E 120°50'0 0.0
2015-Jul-21 12:21N 31°50' E 120°50'0 0.0
2015-Jul-21 11:30N 31°50' E 120°50'0 0.0
2015-Jul-21 10:30N 31°50' E 120°50'0 0.0
2015-Jul-21 07:06N 31°50' E 120°50'0 0.0
2015-Jul-21 02:33N 31°50' E 120°50'0 0.0
2015-Jul-21 01:24N 31°50' E 120°50'0 0.0
2015-Jul-21 00:33N 31°50' E 120°50'0 0.0
2015-Jul-20 23:27N 31°50' E 120°50'0 0.0
2015-Jul-20 22:33N 31°50' E 120°50'0 0.0
2015-Jul-20 21:30N 31°50' E 120°50'0 0.0
2015-Jul-20 20:33N 31°50' E 120°50'0 0.0
2015-Jul-20 19:33N 31°50' E 120°50'0 0.0
2015-Jul-20 18:21N 31°50' E 120°50'0 0.0
2015-Jul-20 17:27N 31°50' E 120°50'0 0.0
2015-Jul-20 16:33N 31°50' E 120°50'0 0.0
2015-Jul-20 15:27N 31°50' E 120°50'0 0.0
2015-Jul-20 14:30N 31°50' E 120°50'0 0.0
2015-Jul-20 10:33N 31°50' E 120°50'0 0.0
2015-Jul-20 09:27N 31°50' E 120°50'0 0.0
2015-Jul-20 08:33N 31°50' E 120°50'0 0.0
2015-Jul-20 07:06N 31°50' E 120°50'0 0.0
2015-Jul-20 04:09N 31°50' E 120°50'0 0.0
2015-Jul-20 03:33N 31°50' E 120°50'0 0.0
2015-Jul-20 02:33N 31°50' E 120°50'0 0.0
2015-Jul-20 01:33N 31°50' E 120°50'0 0.0
2015-Jul-20 00:33N 31°50' E 120°50'0 0.0
2015-Jul-19 23:33N 31°50' E 120°50'0 0.0
2015-Jul-19 22:33N 31°50' E 120°50'0 0.0
2015-Jul-19 21:33N 31°50' E 120°50'0 0.0
2015-Jul-19 20:24N 31°50' E 120°50'0 0.0
2015-Jul-19 19:24N 31°50' E 120°50'0 0.0
2015-Jul-19 17:27N 31°50' E 120°50'0 0.0
2015-Jul-19 16:30N 31°50' E 120°50'0 0.0
2015-Jul-19 15:30N 31°50' E 120°50'0 0.0
2015-Jul-19 14:33N 31°50' E 120°50'0 0.0
2015-Jul-19 13:24N 31°50' E 120°50'0 0.0
2015-Jul-19 12:18N 31°50' E 120°50'0 0.4
2015-Jul-19 11:33N 31°50' E 120°51'6 5.9
2015-Jul-19 10:31N 31°47' E 120°57'9 9.0
2015-Jul-19 09:33N 31°44' E 121°06'1111.2
2015-Jul-19 08:33N 31°37' E 121°16'1212.0
2015-Jul-19 07:33N 31°29' E 121°27'9 9.0
2015-Jul-19 06:33N 31°23' E 121°35'10 9.8
2015-Jul-19 05:33N 31°19' E 121°45'10 9.7
2015-Jul-19 04:33N 31°16' E 121°56'38 9.3
2015-Jul-19 00:32N 31°07' E 122°38'3 2.6
2015-Jul-18 23:33N 31°07' E 122°41'23 7.0
2015-Jul-18 20:18N 30°59' E 123°07'20 6.9
2015-Jul-18 17:21N 30°43' E 123°20'75 9.5
2015-Jul-18 09:28N 29°40' E 122°33'1111.4
2015-Jul-18 08:30N 29°43' E 122°21'1111.7
2015-Jul-18 07:33N 29°51' E 122°12'6 1.1
2015-Jul-18 02:13N 29°54' E 122°06'0 0.0
2015-Jul-18 01:25N 29°54' E 122°06'0 0.0
2015-Jul-17 18:31N 29°54' E 122°06'0 0.0
2015-Jul-17 16:16N 29°54' E 122°06'0 0.0
2015-Jul-17 15:07N 29°54' E 122°06'0 0.0
2015-Jul-17 14:31N 29°54' E 122°06'0 0.0
2015-Jul-17 12:25N 29°54' E 122°06'0 0.0
2015-Jul-17 10:13N 29°54' E 122°06'0 0.0
2015-Jul-17 08:13N 29°54' E 122°06'0 0.0
2015-Jul-17 06:31N 29°54' E 122°06'0 0.0
2015-Jul-17 03:30N 29°54' E 122°06'3 3.3
2015-Jul-17 02:33N 29°55' E 122°10'1211.6
2015-Jul-17 01:33N 29°46' E 122°18'8 8.3
2015-Jul-17 00:33N 29°39' E 122°23'2 0.3
2015-Jul-16 17:28N 29°38' E 122°25'0 0.1
2015-Jul-16 14:28N 29°38' E 122°25'0 0.0
2015-Jul-15 11:05N 29°38' E 122°25'1 1.9
2015-Jul-15 10:33N 29°37' E 122°24'4 4.1
2015-Jul-15 09:33N 29°34' E 122°27'5 5.1
2015-Jul-15 08:33N 29°31' E 122°31'  

Dump ship's entire track history